^^
Your Local Weather - Clay, NY Station Historical Data
Daily Summary for September 18, 2017 Units:  English    Metric   Both
« Previous Day
Next Day »
Daily Weekly Monthly Yearly Custom
  High: Low: Average:
Temperature: 84.1 °F 60.9 °F 70.2 °F
Dew Point: 69.3 °F 59.2 °F 63.1 °F
Humidity: 95% 50% 80%
Wind Speed: 4.0mph 0.0mph 0.6mph
Wind Gust: 8.0mph - -
Wind- - ESE
Pressure: 30.07 in 29.98 in -
Precipitation: 0.00 in    
Historical Graphs
 
 
Tabular Data for September 18, 2017
Time Temperature Dew Point Pressure Wind Wind Speed Wind Gust Humidity Rainfall Rate (Hourly) solar
00:02 63.0 °F 60.9 °F 30.05 in Calm     93% 0.00 in 0 W/m2
00:08 62.9 °F 60.8 °F 30.05 in Calm     93% 0.00 in 0 W/m2
00:14 62.7 °F 60.6 °F 30.05 in Calm     93% 0.00 in 0 W/m2
00:20 62.5 °F 60.4 °F 30.04 in Calm     93% 0.00 in 0 W/m2
00:26 62.4 °F 60.3 °F 30.04 in Calm     93% 0.00 in 0 W/m2
00:32 62.2 °F 60.2 °F 30.05 in Calm     93% 0.00 in 0 W/m2
00:38 62.1 °F 60.1 °F 30.05 in Calm     93% 0.00 in 0 W/m2
00:44 62.3 °F 60.2 °F 30.05 in Calm     93% 0.00 in 0 W/m2
00:50 62.3 °F 60.2 °F 30.04 in Calm     93% 0.00 in 0 W/m2
00:56 62.3 °F 60.2 °F 30.05 in Calm     93% 0.00 in 0 W/m2
01:02 62.4 °F 60.3 °F 30.05 in Calm     93% 0.00 in 0 W/m2
01:08 62.4 °F 60.3 °F 30.05 in Calm     93% 0.00 in 0 W/m2
01:14 62.4 °F 60.3 °F 30.05 in Calm     93% 0.00 in 0 W/m2
01:20 62.3 °F 60.2 °F 30.05 in Calm     93% 0.00 in 0 W/m2
01:26 62.1 °F 60.1 °F 30.05 in Calm     93% 0.00 in 0 W/m2
01:32 61.9 °F 59.9 °F 30.05 in Calm     93% 0.00 in 0 W/m2
01:38 61.7 °F 59.7 °F 30.05 in Calm     93% 0.00 in 0 W/m2
01:44 61.6 °F 59.6 °F 30.05 in Calm     93% 0.00 in 0 W/m2
01:50 61.7 °F 60.0 °F 30.05 in Calm     94% 0.00 in 0 W/m2
01:56 61.9 °F 60.2 °F 30.05 in Calm     94% 0.00 in 0 W/m2
02:02 61.9 °F 60.2 °F 30.04 in Calm     94% 0.00 in 0 W/m2
02:08 61.7 °F 60.0 °F 30.04 in Calm     94% 0.00 in 0 W/m2
02:14 61.4 °F 59.4 °F 30.04 in Calm     93% 0.00 in 0 W/m2
02:20 61.3 °F 59.6 °F 30.04 in Calm     94% 0.00 in 0 W/m2
02:26 61.5 °F 59.8 °F 30.04 in Calm     94% 0.00 in 0 W/m2
02:32 61.4 °F 59.7 °F 30.04 in Calm     94% 0.00 in 0 W/m2
02:38 61.5 °F 59.8 °F 30.04 in Calm     94% 0.00 in 0 W/m2
02:44 61.6 °F 59.9 °F 30.04 in Calm     94% 0.00 in 0 W/m2
02:50 61.5 °F 59.8 °F 30.04 in Calm     94% 0.00 in 0 W/m2
02:56 61.8 °F 60.1 °F 30.03 in Calm     94% 0.00 in 0 W/m2
03:02 61.8 °F 60.1 °F 30.04 in Calm     94% 0.00 in 0 W/m2
03:08 61.7 °F 60.0 °F 30.04 in Calm     94% 0.00 in 0 W/m2
03:14 61.6 °F 59.9 °F 30.03 in Calm     94% 0.00 in 0 W/m2
03:20 61.5 °F 59.8 °F 30.03 in Calm     94% 0.00 in 0 W/m2
03:26 61.5 °F 59.8 °F 30.03 in Calm     94% 0.00 in 0 W/m2
03:32 61.5 °F 59.8 °F 30.03 in Calm     94% 0.00 in 0 W/m2
03:38 61.3 °F 59.6 °F 30.03 in Calm     94% 0.00 in 0 W/m2
03:44 61.4 °F 59.7 °F 30.03 in Calm     94% 0.00 in 0 W/m2
03:50 61.5 °F 59.8 °F 30.03 in Calm     94% 0.00 in 0 W/m2
03:56 61.4 °F 59.7 °F 30.03 in Calm     94% 0.00 in 0 W/m2
04:02 61.3 °F 59.6 °F 30.03 in Calm     94% 0.00 in 0 W/m2
04:08 61.2 °F 59.5 °F 30.03 in Calm     94% 0.00 in 0 W/m2
04:14 61.3 °F 59.6 °F 30.03 in Calm     94% 0.00 in 0 W/m2
04:20 61.2 °F 59.5 °F 30.03 in Calm     94% 0.00 in 0 W/m2
04:26 61.1 °F 59.4 °F 30.03 in Calm     94% 0.00 in 0 W/m2
04:32 61.0 °F 59.3 °F 30.03 in Calm     94% 0.00 in 0 W/m2
04:38 61.0 °F 59.3 °F 30.03 in Calm     94% 0.00 in 0 W/m2
04:44 61.0 °F 59.3 °F 30.03 in Calm     94% 0.00 in 0 W/m2
04:50 61.0 °F 59.3 °F 30.03 in Calm     94% 0.00 in 0 W/m2
04:56 60.9 °F 59.2 °F 30.03 in Calm     94% 0.00 in 0 W/m2
05:02 60.9 °F 59.2 °F 30.03 in Calm     94% 0.00 in 0 W/m2
05:08 61.1 °F 59.4 °F 30.03 in Calm     94% 0.00 in 0 W/m2
05:14 61.2 °F 59.8 °F 30.04 in Calm     95% 0.00 in 0 W/m2
05:20 61.1 °F 59.7 °F 30.04 in Calm     95% 0.00 in 0 W/m2
05:26 61.2 °F 59.8 °F 30.04 in Calm     95% 0.00 in 0 W/m2
05:32 60.9 °F 59.2 °F 30.04 in Calm     94% 0.00 in 0 W/m2
05:38 61.6 °F 60.2 °F 30.04 in Calm   2.0 mph 95% 0.00 in 0 W/m2
05:44 61.8 °F 60.4 °F 30.04 in Calm     95% 0.00 in 0 W/m2
05:50 61.3 °F 59.9 °F 30.04 in Calm     95% 0.00 in 0 W/m2
05:56 61.2 °F 59.8 °F 30.04 in Calm     95% 0.00 in 0 W/m2
06:02 61.4 °F 60.0 °F 30.04 in Calm     95% 0.00 in 0 W/m2
06:08 61.3 °F 59.9 °F 30.04 in Calm     95% 0.00 in 0 W/m2
06:14 61.3 °F 59.9 °F 30.04 in Calm     95% 0.00 in 0 W/m2
06:20 61.8 °F 60.4 °F 30.04 in Calm     95% 0.00 in 0 W/m2
06:26 61.6 °F 60.2 °F 30.04 in Calm     95% 0.00 in 0 W/m2
06:32 61.4 °F 60.0 °F 30.04 in Calm     95% 0.00 in 0 W/m2
06:38 61.7 °F 60.3 °F 30.05 in Calm     95% 0.00 in 0 W/m2
06:44 62.1 °F 60.7 °F 30.05 in Calm     95% 0.00 in 0 W/m2
06:50 62.4 °F 60.9 °F 30.05 in Calm     95% 0.00 in 0 W/m2
06:56 62.4 °F 60.9 °F 30.05 in Calm     95% 0.00 in 7 W/m2
07:02 62.2 °F 60.8 °F 30.05 in Calm     95% 0.00 in 11 W/m2
07:08 62.3 °F 60.8 °F 30.05 in Calm     95% 0.00 in 14 W/m2
07:14 62.2 °F 60.8 °F 30.05 in Calm     95% 0.00 in 18 W/m2
07:20 62.1 °F 60.7 °F 30.05 in Calm     95% 0.00 in 21 W/m2
07:26 62.0 °F 60.6 °F 30.05 in Calm     95% 0.00 in 26 W/m2
07:32 61.9 °F 60.5 °F 30.05 in Calm     95% 0.00 in 30 W/m2
07:38 62.0 °F 60.6 °F 30.05 in Calm     95% 0.00 in 37 W/m2
07:44 62.1 °F 60.7 °F 30.05 in Calm   3.0 mph 95% 0.00 in 42 W/m2
07:50 62.2 °F 60.8 °F 30.05 in Calm     95% 0.00 in 58 W/m2
07:56 62.4 °F 60.9 °F 30.05 in Calm     95% 0.00 in 74 W/m2
08:02 62.8 °F 61.3 °F 30.05 in Calm     95% 0.00 in 93 W/m2
08:08 63.3 °F 61.8 °F 30.05 in Calm   1.0 mph 95% 0.00 in 97 W/m2
08:14 63.8 °F 62.3 °F 30.06 in Calm     95% 0.00 in 104 W/m2
08:20 64.2 °F 62.7 °F 30.06 in Calm     95% 0.00 in 86 W/m2
08:26 64.5 °F 63.0 °F 30.06 in Calm   1.0 mph 95% 0.00 in 111 W/m2
08:32 64.7 °F 63.2 °F 30.06 in Calm     95% 0.00 in 79 W/m2
08:38 65.0 °F 63.5 °F 30.06 in Calm   1.0 mph 95% 0.00 in 95 W/m2
08:44 65.3 °F 63.8 °F 30.07 in Calm     95% 0.00 in 79 W/m2
08:50 65.4 °F 63.9 °F 30.06 in Calm     95% 0.00 in 79 W/m2
08:56 65.5 °F 64.0 °F 30.06 in Calm   2.0 mph 95% 0.00 in 97 W/m2
09:02 65.9 °F 64.4 °F 30.07 in Calm   1.0 mph 95% 0.00 in 109 W/m2
09:08 66.3 °F 64.5 °F 30.06 in East 1.0 mph 1.0 mph 94% 0.00 in 125 W/m2
09:14 67.0 °F 65.2 °F 30.06 in East 1.0 mph 1.0 mph 94% 0.00 in 144 W/m2
09:20 67.6 °F 65.5 °F 30.06 in East 1.0 mph 1.0 mph 93% 0.00 in 156 W/m2
09:26 68.2 °F 65.5 °F 30.06 in ENE 1.0 mph 5.0 mph 91% 0.00 in 104 W/m2
09:32 69.0 °F 65.6 °F 30.06 in ENE 1.0 mph 1.0 mph 89% 0.00 in 151 W/m2
09:38 69.6 °F 65.2 °F 30.05 in ENE 1.0 mph 2.0 mph 86% 0.00 in 162 W/m2
09:44 70.3 °F 65.6 °F 30.05 in ESE 1.0 mph 3.0 mph 85% 0.00 in 211 W/m2
09:50 71.0 °F 65.2 °F 30.05 in NE 1.0 mph 1.0 mph 82% 0.00 in 420 W/m2
09:56 72.3 °F 66.5 °F 30.05 in SSE 1.0 mph 3.0 mph 82% 0.00 in 446 W/m2
10:04 73.2 °F 65.9 °F 30.05 in SSE 2.0 mph 4.0 mph 78% 0.00 in 483 W/m2
10:10 73.8 °F 66.1 °F 30.05 in SE 2.0 mph 2.0 mph 77% 0.00 in 504 W/m2
10:16 74.4 °F 66.7 °F 30.05 in SSE 1.0 mph 5.0 mph 77% 0.00 in 517 W/m2
10:22 74.9 °F 66.8 °F 30.05 in SSE 1.0 mph 4.0 mph 76% 0.00 in 526 W/m2
10:28 75.2 °F 66.7 °F 30.05 in ESE 2.0 mph 4.0 mph 75% 0.00 in 547 W/m2
10:34 75.8 °F 66.5 °F 30.05 in SE 1.0 mph 2.0 mph 73% 0.00 in 568 W/m2
10:40 76.5 °F 65.6 °F 30.05 in Calm     69% 0.00 in 585 W/m2
10:46 77.4 °F 67.3 °F 30.05 in Calm     71% 0.00 in 596 W/m2
10:52 77.6 °F 66.2 °F 30.05 in Calm     68% 0.00 in 608 W/m2
10:58 78.2 °F 66.3 °F 30.05 in Calm     67% 0.00 in 631 W/m2
11:04 78.5 °F 65.3 °F 30.05 in Calm     64% 0.00 in 643 W/m2
11:10 78.9 °F 66.1 °F 30.05 in Calm   2.0 mph 65% 0.00 in 663 W/m2
11:16 78.1 °F 66.7 °F 30.05 in SSE 1.0 mph 3.0 mph 68% 0.00 in 659 W/m2
11:22 78.5 °F 67.5 °F 30.05 in Calm   1.0 mph 69% 0.00 in 677 W/m2
11:28 78.4 °F 65.7 °F 30.04 in NE 1.0 mph 4.0 mph 65% 0.00 in 696 W/m2
11:40 78.9 °F 66.1 °F 30.04 in SSE 1.0 mph 1.0 mph 65% 0.00 in 731 W/m2
11:46 79.0 °F 65.3 °F 30.04 in ENE 2.0 mph 3.0 mph 63% 0.00 in 749 W/m2
11:52 79.4 °F 65.2 °F 30.04 in South 2.0 mph 3.0 mph 62% 0.00 in 682 W/m2
11:58 80.0 °F 65.8 °F 30.04 in SE 2.0 mph 4.0 mph 62% 0.00 in 747 W/m2
12:04 80.2 °F 65.1 °F 30.04 in East 2.0 mph 2.0 mph 60% 0.00 in 615 W/m2
12:10 80.3 °F 64.2 °F 30.04 in ESE 1.0 mph 1.0 mph 58% 0.00 in 777 W/m2
12:16 81.0 °F 66.8 °F 30.03 in East 1.0 mph 3.0 mph 62% 0.00 in 775 W/m2
12:22 81.2 °F 64.5 °F 30.04 in SSE 1.0 mph 3.0 mph 57% 0.00 in 728 W/m2
12:28 81.5 °F 64.3 °F 30.03 in SSE 1.0 mph 3.0 mph 56% 0.00 in 721 W/m2
12:34 81.3 °F 63.6 °F 30.04 in SSW 2.0 mph 3.0 mph 55% 0.00 in 752 W/m2
12:40 81.1 °F 62.9 °F 30.04 in South 2.0 mph 4.0 mph 54% 0.00 in 283 W/m2
12:46 81.4 °F 67.6 °F 30.03 in SSE 2.0 mph 4.0 mph 63% 0.00 in 754 W/m2
12:52 81.9 °F 67.1 °F 30.03 in NE 1.0 mph 2.0 mph 61% 0.00 in 752 W/m2
12:58 80.0 °F 66.7 °F 30.03 in ENE 3.0 mph 4.0 mph 64% 0.00 in 719 W/m2
13:04 81.1 °F 67.8 °F 30.03 in ENE 3.0 mph 6.0 mph 64% 0.00 in 729 W/m2
13:10 80.8 °F 67.5 °F 30.02 in NE 3.0 mph 3.0 mph 64% 0.00 in 724 W/m2
13:16 80.7 °F 66.5 °F 30.02 in NW 3.0 mph 7.0 mph 62% 0.00 in 731 W/m2
13:22 81.1 °F 65.9 °F 30.02 in ENE 4.0 mph 5.0 mph 60% 0.00 in 721 W/m2
13:28 81.3 °F 65.6 °F 30.02 in ESE 3.0 mph 5.0 mph 59% 0.00 in 735 W/m2
13:34 81.6 °F 65.9 °F 30.02 in NNE 4.0 mph 8.0 mph 59% 0.00 in 729 W/m2
13:40 81.5 °F 64.8 °F 30.02 in NNW 4.0 mph 4.0 mph 57% 0.00 in 724 W/m2
13:46 82.0 °F 65.8 °F 30.02 in NNE 3.0 mph 6.0 mph 58% 0.00 in 726 W/m2
13:52 82.0 °F 65.8 °F 30.02 in ENE 3.0 mph 4.0 mph 58% 0.00 in 239 W/m2
13:58 81.8 °F 67.0 °F 30.01 in NE 3.0 mph 4.0 mph 61% 0.00 in 714 W/m2
14:04 81.6 °F 65.4 °F 30.01 in East 3.0 mph 4.0 mph 58% 0.00 in 707 W/m2
14:10 82.6 °F 67.3 °F 30.01 in NE 2.0 mph 2.0 mph 60% 0.00 in 696 W/m2
14:16 82.7 °F 65.9 °F 30.01 in East 2.0 mph 2.0 mph 57% 0.00 in 694 W/m2
14:22 83.1 °F 64.7 °F 30.01 in ENE 1.0 mph 2.0 mph 54% 0.00 in 656 W/m2
14:28 83.4 °F 65.5 °F 30.00 in ENE 1.0 mph 3.0 mph 55% 0.00 in 650 W/m2
14:34 83.4 °F 67.1 °F 30.00 in ENE 1.0 mph 1.0 mph 58% 0.00 in 624 W/m2
14:40 83.3 °F 65.4 °F 30.00 in NNE 1.0 mph 1.0 mph 55% 0.00 in 585 W/m2
14:46 82.9 °F 64.0 °F 30.00 in NNE 2.0 mph 3.0 mph 53% 0.00 in 519 W/m2
14:52 82.7 °F 63.8 °F 30.00 in North 3.0 mph 3.0 mph 53% 0.00 in 582 W/m2
15:06 83.3 °F 64.9 °F 30.00 in North 3.0 mph 4.0 mph 54% 0.00 in 635 W/m2
15:12 83.4 °F 65.5 °F 30.00 in North 3.0 mph 6.0 mph 55% 0.00 in 577 W/m2
15:14 83.2 °F 64.3 °F 30.00 in NNE 3.0 mph 6.0 mph 53% 0.00 in 615 W/m2
15:20 83.7 °F 64.2 °F 30.00 in North 3.0 mph 3.0 mph 52% 0.00 in 631 W/m2
15:24 83.6 °F 63.0 °F 30.00 in ENE 3.0 mph 3.0 mph 50% 0.00 in 626 W/m2
15:26 83.1 °F 63.7 °F 30.00 in ENE 3.0 mph 3.0 mph 52% 0.00 in 629 W/m2
15:36 83.4 °F 62.8 °F 29.99 in ENE 2.0 mph 3.0 mph 50% 0.00 in 585 W/m2
15:42 83.5 °F 64.6 °F 29.99 in ENE 2.0 mph 5.0 mph 53% 0.00 in 563 W/m2
15:48 84.1 °F 63.5 °F 29.99 in North 3.0 mph 5.0 mph 50% 0.00 in 534 W/m2
15:54 83.3 °F 63.3 °F 29.99 in NNE 3.0 mph 6.0 mph 51% 0.00 in 420 W/m2
16:00 83.6 °F 63.6 °F 29.99 in ENE 3.0 mph 3.0 mph 51% 0.00 in 504 W/m2
16:02 83.7 °F 64.2 °F 29.99 in North 2.0 mph 4.0 mph 52% 0.00 in 478 W/m2
16:04 83.7 °F 63.7 °F 29.99 in North 2.0 mph 4.0 mph 51% 0.00 in 357 W/m2
16:08 83.6 °F 63.0 °F 29.99 in NNW 2.0 mph 4.0 mph 50% 0.00 in 461 W/m2
16:26 83.8 °F 64.3 °F 29.99 in NNW 2.0 mph 2.0 mph 52% 0.00 in 438 W/m2
16:32 83.3 °F 63.3 °F 29.99 in ENE 1.0 mph 2.0 mph 51% 0.00 in 397 W/m2
16:42 83.3 °F 63.3 °F 29.99 in North 2.0 mph 4.0 mph 51% 0.00 in 371 W/m2
16:48 83.2 °F 64.3 °F 29.99 in NE 2.0 mph 4.0 mph 53% 0.00 in 353 W/m2
16:52 83.4 °F 64.5 °F 29.98 in North 2.0 mph 2.0 mph 53% 0.00 in 343 W/m2
16:54 83.5 °F 62.9 °F 29.98 in East 1.0 mph 2.0 mph 50% 0.00 in 330 W/m2
16:58 83.2 °F 63.7 °F 29.98 in North 1.0 mph 2.0 mph 52% 0.00 in 295 W/m2
17:04 82.9 °F 63.5 °F 29.98 in NE 1.0 mph 2.0 mph 52% 0.00 in 214 W/m2
17:08 82.4 °F 63.0 °F 29.98 in NE 1.0 mph 2.0 mph 52% 0.00 in 169 W/m2
17:10 82.3 °F 63.5 °F 29.98 in NE 1.0 mph 1.0 mph 53% 0.00 in 179 W/m2
17:16 82.1 °F 65.4 °F 29.98 in NE 1.0 mph 1.0 mph 57% 0.00 in 223 W/m2
17:18 82.0 °F 62.6 °F 29.98 in Calm   1.0 mph 52% 0.00 in 230 W/m2
17:24 82.2 °F 66.0 °F 29.98 in Calm     58% 0.00 in 234 W/m2
17:30 82.0 °F 65.8 °F 29.99 in Calm     58% 0.00 in 199 W/m2
17:36 81.7 °F 66.5 °F 29.99 in Calm   1.0 mph 60% 0.00 in 93 W/m2
17:40 81.3 °F 69.3 °F 29.98 in Calm     67% 0.00 in 72 W/m2
17:46 80.1 °F 68.2 °F 29.98 in Calm   1.0 mph 67% 0.00 in 54 W/m2
17:50 79.7 °F 68.2 °F 29.98 in Calm     68% 0.00 in 54 W/m2
17:52 79.4 °F 67.9 °F 29.98 in Calm     68% 0.00 in 60 W/m2
18:04 77.7 °F 68.0 °F 29.98 in Calm     72% 0.00 in 58 W/m2
18:10 76.9 °F 68.4 °F 29.98 in Calm     75% 0.00 in 51 W/m2
18:16 76.1 °F 68.4 °F 29.98 in Calm     77% 0.00 in 46 W/m2
18:22 75.4 °F 68.4 °F 29.98 in Calm     79% 0.00 in 37 W/m2
18:28 74.8 °F 68.2 °F 29.98 in Calm     80% 0.00 in 30 W/m2
18:34 74.4 °F 67.8 °F 29.98 in Calm     80% 0.00 in 26 W/m2
18:40 74.1 °F 67.2 °F 29.98 in Calm     79% 0.00 in 23 W/m2
18:46 73.9 °F 67.3 °F 29.98 in Calm     80% 0.00 in 18 W/m2
18:52 73.6 °F 67.0 °F 29.98 in Calm     80% 0.00 in 12 W/m2
18:58 73.0 °F 66.5 °F 29.98 in Calm     80% 0.00 in 7 W/m2
19:04 72.5 °F 65.6 °F 29.98 in Calm     79% 0.00 in 0 W/m2
19:10 72.1 °F 65.6 °F 29.98 in Calm     80% 0.00 in 0 W/m2
19:16 71.7 °F 65.2 °F 29.98 in Calm     80% 0.00 in 0 W/m2
19:22 71.3 °F 64.8 °F 29.98 in Calm     80% 0.00 in 0 W/m2
19:28 71.0 °F 65.2 °F 29.99 in Calm     82% 0.00 in 0 W/m2
19:34 70.4 °F 64.6 °F 29.99 in Calm     82% 0.00 in 0 W/m2
19:40 69.9 °F 64.2 °F 29.99 in Calm     82% 0.00 in 0 W/m2
19:46 69.6 °F 63.9 °F 29.99 in Calm     82% 0.00 in 0 W/m2
19:52 69.2 °F 63.8 °F 29.99 in Calm     83% 0.00 in 0 W/m2
19:58 69.0 °F 63.6 °F 29.99 in Calm     83% 0.00 in 0 W/m2
20:04 68.7 °F 63.7 °F 29.99 in Calm     84% 0.00 in 0 W/m2
20:10 68.5 °F 63.5 °F 29.99 in Calm     84% 0.00 in 0 W/m2
20:16 68.3 °F 63.6 °F 29.99 in Calm     85% 0.00 in 0 W/m2
20:22 68.1 °F 63.8 °F 29.99 in Calm     86% 0.00 in 0 W/m2
20:28 67.9 °F 63.6 °F 30.00 in Calm     86% 0.00 in 0 W/m2
20:34 67.6 °F 63.3 °F 30.00 in Calm     86% 0.00 in 0 W/m2
20:40 67.4 °F 63.1 °F 30.00 in Calm     86% 0.00 in 0 W/m2
20:46 67.1 °F 62.8 °F 30.00 in Calm     86% 0.00 in 0 W/m2
20:52 66.9 °F 62.6 °F 30.00 in Calm     86% 0.00 in 0 W/m2
20:58 66.6 °F 62.6 °F 30.00 in Calm     87% 0.00 in 0 W/m2
21:04 66.6 °F 62.6 °F 30.00 in Calm     87% 0.00 in 0 W/m2
21:10 66.6 °F 62.9 °F 30.00 in Calm     88% 0.00 in 0 W/m2
21:16 66.5 °F 62.8 °F 30.00 in Calm     88% 0.00 in 0 W/m2
21:22 66.4 °F 63.1 °F 30.00 in Calm     89% 0.00 in 0 W/m2
21:28 66.4 °F 63.1 °F 30.00 in Calm     89% 0.00 in 0 W/m2
21:34 66.3 °F 63.0 °F 30.00 in Calm     89% 0.00 in 0 W/m2
21:40 66.1 °F 62.8 °F 30.00 in Calm     89% 0.00 in 0 W/m2
21:46 66.0 °F 63.0 °F 30.00 in Calm     90% 0.00 in 0 W/m2
21:52 65.9 °F 62.9 °F 30.00 in Calm     90% 0.00 in 0 W/m2
21:58 65.5 °F 62.5 °F 30.00 in Calm     90% 0.00 in 0 W/m2
22:04 65.4 °F 62.4 °F 30.00 in Calm     90% 0.00 in 0 W/m2
22:10 65.3 °F 62.6 °F 30.00 in Calm     91% 0.00 in 0 W/m2
22:16 65.2 °F 62.5 °F 30.00 in Calm     91% 0.00 in 0 W/m2
22:22 65.1 °F 62.4 °F 30.00 in Calm     91% 0.00 in 0 W/m2
22:28 64.9 °F 62.2 °F 30.00 in Calm     91% 0.00 in 0 W/m2
22:34 64.9 °F 62.2 °F 30.00 in Calm     91% 0.00 in 0 W/m2
22:40 64.8 °F 62.1 °F 30.00 in Calm     91% 0.00 in 0 W/m2
22:46 64.9 °F 62.2 °F 30.00 in Calm   2.0 mph 91% 0.00 in 0 W/m2
22:52 64.9 °F 62.2 °F 30.01 in Calm     91% 0.00 in 0 W/m2
22:58 64.7 °F 62.0 °F 30.01 in Calm     91% 0.00 in 0 W/m2
23:04 64.7 °F 62.0 °F 30.01 in Calm     91% 0.00 in 0 W/m2
23:10 64.7 °F 62.0 °F 30.01 in Calm     91% 0.00 in 0 W/m2
23:16 64.7 °F 62.0 °F 30.01 in Calm     91% 0.00 in 0 W/m2
23:22 64.7 °F 62.3 °F 30.01 in Calm     92% 0.00 in 0 W/m2
23:28 64.6 °F 61.9 °F 30.01 in Calm     91% 0.00 in 0 W/m2
23:34 64.5 °F 61.8 °F 30.01 in Calm     91% 0.00 in 0 W/m2
23:40 64.7 °F 62.3 °F 30.01 in Calm     92% 0.00 in 0 W/m2
23:46 64.7 °F 62.3 °F 30.01 in Calm     92% 0.00 in 0 W/m2
23:52 64.6 °F 62.2 °F 30.01 in Calm     92% 0.00 in 0 W/m2
23:58 64.5 °F 61.8 °F 30.01 in NE 1.0 mph 2.0 mph 91% 0.00 in 0 W/m2
Country Meadow, Clay, NY, USA
Compliments of Weather Underground - 2 mb